Time;durP1;ratioP1;P1;durP2;ratioP2;P2;SDS_P1;SDS_P2;PMS_P1;PMS_P2;Temp;Humidity;BMP_temperature;BMP_pressure;BME280_temperature;BME280_humidity;BME280_pressure;Samples;Min_cycle;Max_cycle;Signal;HPM_P1;HPM_P2
2021/11/10 00:02:07;;;;;;;13.82;7.45;;;11.80;99.90;;;;;;5021209;28;20141;-77
2021/11/10 00:04:34;;;;;;;10.77;7.18;;;11.90;99.90;;;;;;5014261;28;20051;-74
2021/11/10 00:07:01;;;;;;;11.52;7.18;;;11.90;99.90;;;;;;5031757;28;20033;-76
2021/11/10 00:09:26;;;;;;;9.80;6.40;;;12.00;99.90;;;;;;5031510;28;20040;-77
2021/11/10 00:11:54;;;;;;;12.07;6.78;;;12.10;99.90;;;;;;5031931;28;20025;-75
2021/11/10 00:14:20;;;;;;;11.20;6.68;;;12.10;99.90;;;;;;5031473;28;20088;-73
2021/11/10 00:16:46;;;;;;;12.40;7.35;;;12.20;99.90;;;;;;5032197;28;20042;-77
2021/11/10 00:19:12;;;;;;;12.98;6.75;;;12.30;99.90;;;;;;5031592;28;20470;-74
2021/11/10 00:21:37;;;;;;;11.27;7.10;;;12.30;99.90;;;;;;5029769;28;20049;-76
2021/11/10 00:24:03;;;;;;;13.48;6.85;;;12.30;99.90;;;;;;5028392;28;20523;-74
2021/11/10 00:26:29;;;;;;;11.75;6.70;;;12.30;99.90;;;;;;5013875;28;20129;-76
2021/11/10 00:28:56;;;;;;;14.15;6.22;;;12.30;99.90;;;;;;5030640;28;20068;-78
2021/11/10 00:31:21;;;;;;;9.30;6.28;;;12.30;99.90;;;;;;5031184;28;20588;-75
2021/11/10 00:33:48;;;;;;;10.70;6.25;;;12.40;99.90;;;;;;5031921;28;20049;-75
2021/11/10 00:36:15;;;;;;;11.45;6.45;;;12.40;99.90;;;;;;5031442;28;20045;-77
2021/11/10 00:38:41;;;;;;;8.60;6.25;;;12.50;99.90;;;;;;5031894;28;20036;-76
2021/11/10 00:41:07;;;;;;;14.25;6.50;;;12.50;99.90;;;;;;5031296;28;20394;-73
2021/11/10 00:43:32;;;;;;;13.38;7.10;;;12.60;99.90;;;;;;5029826;28;20164;-76
2021/11/10 00:45:58;;;;;;;16.42;6.80;;;12.70;99.90;;;;;;5030368;28;20255;-75
2021/11/10 00:48:24;;;;;;;11.57;6.95;;;12.70;99.90;;;;;;5031195;28;20046;-75
2021/11/10 00:50:50;;;;;;;14.48;6.88;;;12.70;99.90;;;;;;5031189;28;20037;-74
2021/11/10 00:53:17;;;;;;;9.13;5.53;;;12.70;99.90;;;;;;5015017;28;20342;-74
2021/11/10 00:55:42;;;;;;;11.73;6.35;;;12.80;99.90;;;;;;5034487;28;20121;-74
2021/11/10 00:58:09;;;;;;;9.85;6.20;;;12.80;99.90;;;;;;5034838;28;20061;-74
2021/11/10 01:00:36;;;;;;;12.10;6.03;;;12.80;99.90;;;;;;5035033;28;20074;-77
2021/11/10 01:03:03;;;;;;;10.85;6.30;;;12.80;99.90;;;;;;5034528;28;20033;-74
2021/11/10 01:05:29;;;;;;;14.30;6.90;;;12.80;99.90;;;;;;5035068;28;20025;-73
2021/11/10 01:07:57;;;;;;;9.30;6.00;;;12.80;99.90;;;;;;5034741;28;20480;-75
2021/11/10 01:10:23;;;;;;;11.05;5.57;;;12.80;99.90;;;;;;5034659;28;20026;-74
2021/11/10 01:12:50;;;;;;;7.97;5.88;;;12.80;99.90;;;;;;5032463;28;20393;-75
2021/11/10 01:15:17;;;;;;;9.20;5.95;;;12.70;99.90;;;;;;5034621;28;20065;-74
2021/11/10 01:17:42;;;;;;;13.05;5.88;;;12.80;99.90;;;;;;5034680;28;20029;-76
2021/11/10 01:20:10;;;;;;;10.13;5.63;;;12.80;99.90;;;;;;5030756;28;20120;-75
2021/11/10 01:22:36;;;;;;;9.82;5.97;;;12.80;99.90;;;;;;5033739;28;20087;-76
2021/11/10 01:25:04;;;;;;;14.82;5.88;;;12.70;99.90;;;;;;5033652;28;20021;-76
2021/11/10 01:27:30;;;;;;;19.13;6.10;;;12.70;99.90;;;;;;5033638;28;20037;-75
2021/11/10 01:29:55;;;;;;;7.65;5.68;;;12.70;99.90;;;;;;5016844;28;20037;-77
2021/11/10 01:32:21;;;;;;;11.48;6.45;;;12.70;99.90;;;;;;5016878;28;20041;-75
2021/11/10 01:34:47;;;;;;;10.55;6.57;;;12.60;99.90;;;;;;5030833;28;20044;-77
2021/11/10 01:37:13;;;;;;;9.00;5.97;;;12.60;99.90;;;;;;5033824;28;20046;-75
2021/11/10 01:39:39;;;;;;;10.75;5.93;;;12.50;99.90;;;;;;5034339;28;20052;-75
2021/11/10 01:42:05;;;;;;;15.00;6.13;;;12.50;99.90;;;;;;5033925;28;20394;-75
2021/11/10 01:44:38;;;;;;;10.43;6.40;;;12.50;99.90;;;;;;5033645;28;20037;-76
2021/11/10 01:47:10;;;;;;;10.10;6.18;;;12.50;99.90;;;;;;5016125;28;20051;-76
2021/11/10 01:49:36;;;;;;;;;;;12.50;99.90;;;;;;5034253;28;20437;-75
2021/11/10 01:52:03;;;;;;;12.20;6.40;;;12.40;99.90;;;;;;5031739;28;19909;-77
2021/11/10 01:54:31;;;;;;;10.77;5.90;;;12.40;99.90;;;;;;5032115;28;20477;-77
2021/11/10 01:56:58;;;;;;;20.05;5.75;;;12.40;99.90;;;;;;5033465;28;20099;-77
2021/11/10 01:59:33;;;;;;;10.18;5.60;;;12.40;99.90;;;;;;5033020;28;20113;-74
2021/11/10 02:02:01;;;;;;;10.77;5.80;;;12.40;99.90;;;;;;5032671;28;20042;-78
2021/11/10 02:04:28;;;;;;;7.80;5.60;;;12.40;99.90;;;;;;5033668;28;20056;-74
2021/11/10 02:06:54;;;;;;;10.57;5.90;;;12.50;99.90;;;;;;5033144;28;20107;-76
2021/11/10 02:09:23;;;;;;;10.75;5.75;;;12.50;99.90;;;;;;5031989;28;20490;-74
2021/11/10 02:11:50;;;;;;;9.77;5.63;;;12.50;99.90;;;;;;5030954;28;20032;-77
2021/11/10 02:14:20;;;;;;;12.40;6.47;;;12.60;99.90;;;;;;5032255;28;20033;-74
2021/11/10 02:16:47;;;;;;;11.60;5.53;;;12.60;99.90;;;;;;5028510;28;20049;-74
2021/11/10 02:19:15;;;;;;;10.48;6.20;;;12.60;99.90;;;;;;5030960;28;20536;-74
2021/11/10 02:21:48;;;;;;;8.65;5.50;;;12.50;99.90;;;;;;5031171;28;20073;-74
2021/11/10 02:24:14;;;;;;;9.43;5.72;;;12.50;99.90;;;;;;5032496;28;20029;-74
2021/11/10 02:26:44;;;;;;;11.98;5.63;;;12.40;99.90;;;;;;5025860;28;20030;-76
2021/11/10 02:29:14;;;;;;;9.93;5.90;;;12.40;99.90;;;;;;5033824;28;20036;-77
2021/11/10 02:31:40;;;;;;;12.05;5.93;;;12.40;99.90;;;;;;5028056;28;20088;-75
2021/11/10 02:34:06;;;;;;;11.63;5.97;;;12.40;99.90;;;;;;5033219;28;20037;-77
2021/11/10 02:36:33;;;;;;;9.00;5.75;;;12.50;99.90;;;;;;5032827;28;20045;-75
2021/11/10 02:39:09;;;;;;;11.45;6.22;;;12.40;99.90;;;;;;5032826;28;20087;-74
2021/11/10 02:41:37;;;;;;;10.98;6.18;;;12.40;99.90;;;;;;5033011;28;20037;-77
2021/11/10 02:44:05;;;;;;;14.57;6.07;;;12.40;99.90;;;;;;5032886;28;20119;-77
2021/11/10 02:46:32;;;;;;;8.15;5.55;;;12.50;99.90;;;;;;5029543;28;20069;-74
2021/11/10 02:48:58;;;;;;;13.48;5.90;;;12.50;99.90;;;;;;5032907;28;20049;-73
2021/11/10 02:51:24;;;;;;;9.38;6.07;;;12.50;99.90;;;;;;5032893;28;20033;-74
2021/11/10 02:53:50;;;;;;;10.00;6.25;;;12.50;99.90;;;;;;5032701;28;20053;-77
2021/11/10 02:56:16;;;;;;;13.40;6.32;;;12.40;99.90;;;;;;5031937;28;20033;-74
2021/11/10 02:58:41;;;;;;;14.90;6.07;;;12.40;99.90;;;;;;5032732;28;20044;-77
2021/11/10 03:01:07;;;;;;;13.90;6.53;;;12.50;99.90;;;;;;5032226;28;20518;-73
2021/11/10 03:03:34;;;;;;;11.98;6.28;;;12.50;99.90;;;;;;5032618;28;20041;-75
2021/11/10 03:06:00;;;;;;;12.38;6.20;;;12.50;99.90;;;;;;5031252;28;20561;-75
2021/11/10 03:08:25;;;;;;;10.27;6.47;;;12.50;99.90;;;;;;5033263;28;20065;-77
2021/11/10 03:10:52;;;;;;;13.95;6.15;;;12.50;99.90;;;;;;5033503;28;20033;-75
2021/11/10 03:13:18;;;;;;;11.70;5.90;;;12.50;99.90;;;;;;5032573;28;20025;-74
2021/11/10 03:15:45;;;;;;;11.50;6.03;;;12.60;99.90;;;;;;5031668;28;20425;-74
2021/11/10 03:18:12;;;;;;;10.85;5.60;;;12.60;99.90;;;;;;5028254;28;20050;-74
2021/11/10 03:20:38;;;;;;;11.88;5.68;;;12.60;99.90;;;;;;5032141;28;20136;-75
2021/11/10 03:23:05;;;;;;;13.07;5.35;;;12.70;99.90;;;;;;5032132;28;20037;-77
2021/11/10 03:25:31;;;;;;;8.77;5.43;;;12.70;99.90;;;;;;5032017;28;20040;-76
2021/11/10 03:27:57;;;;;;;11.27;5.25;;;12.70;99.90;;;;;;5030941;28;20053;-77
2021/11/10 03:30:24;;;;;;;8.55;5.78;;;12.70;99.90;;;;;;5032646;28;20055;-76
2021/11/10 03:32:51;;;;;;;9.73;5.60;;;12.70;99.90;;;;;;5031917;28;20040;-75
2021/11/10 03:35:19;;;;;;;10.20;5.93;;;12.70;99.90;;;;;;5031331;28;20033;-74
2021/11/10 03:37:44;;;;;;;8.00;5.80;;;12.70;99.90;;;;;;5032409;28;20510;-77
2021/11/10 03:40:11;;;;;;;12.57;5.63;;;12.70;99.90;;;;;;5032413;28;20033;-76
2021/11/10 03:42:37;;;;;;;9.85;5.45;;;12.70;99.90;;;;;;5031440;28;20084;-74
2021/11/10 03:45:04;;;;;;;8.25;5.35;;;12.70;99.90;;;;;;5031905;28;20502;-73
2021/11/10 03:47:30;;;;;;;12.98;5.97;;;12.70;99.90;;;;;;5031291;28;20115;-78
2021/11/10 03:49:56;;;;;;;9.15;5.22;;;12.70;99.90;;;;;;5032143;28;20030;-76
2021/11/10 03:52:21;;;;;;;10.77;5.45;;;12.70;99.90;;;;;;5031310;28;20478;-75
2021/11/10 03:54:48;;;;;;;7.50;5.35;;;12.70;99.90;;;;;;5029040;28;20461;-76
2021/11/10 03:57:14;;;;;;;15.20;5.75;;;12.60;99.90;;;;;;5029736;28;20045;-76
2021/11/10 03:59:40;;;;;;;10.07;5.05;;;12.60;99.90;;;;;;5030161;28;20502;-75
2021/11/10 04:02:07;;;;;;;13.18;5.65;;;12.50;99.90;;;;;;5031621;28;20064;-75
2021/11/10 04:04:33;;;;;;;11.68;5.75;;;12.50;99.90;;;;;;5031805;28;20096;-75
2021/11/10 04:06:59;;;;;;;9.40;5.22;;;12.50;99.90;;;;;;5031173;28;20033;-74
2021/11/10 04:09:25;;;;;;;9.85;5.82;;;12.50;99.90;;;;;;5031626;28;20065;-77
2021/11/10 04:11:51;;;;;;;10.73;6.00;;;12.50;99.90;;;;;;5032237;28;20056;-74
2021/11/10 04:14:17;;;;;;;10.57;5.75;;;12.50;99.90;;;;;;5032275;28;20033;-74
2021/11/10 04:16:43;;;;;;;14.30;5.50;;;12.40;99.90;;;;;;5031226;28;20041;-77
2021/11/10 04:19:09;;;;;;;9.88;5.13;;;12.30;99.90;;;;;;5027399;28;20033;-75
2021/11/10 04:21:35;;;;;;;10.07;6.40;;;12.30;99.90;;;;;;5031856;28;20034;-76
2021/11/10 04:24:00;;;;;;;9.05;5.75;;;12.30;99.90;;;;;;5024068;28;20069;-77
2021/11/10 04:26:32;;;;;;;9.68;5.75;;;12.20;99.90;;;;;;5026691;28;20528;-77
2021/11/10 04:28:58;;;;;;;12.27;5.85;;;12.30;99.90;;;;;;5031060;28;20429;-77
2021/11/10 04:31:24;;;;;;;9.25;5.82;;;12.20;99.90;;;;;;5035436;28;20068;-76
2021/11/10 04:33:52;;;;;;;9.65;6.25;;;12.30;99.90;;;;;;5031708;28;20402;-77
2021/11/10 04:36:18;;;;;;;10.93;6.13;;;12.30;99.90;;;;;;5025874;28;20030;-77
2021/11/10 04:38:45;;;;;;;9.45;5.50;;;12.20;99.90;;;;;;5035157;28;20042;-74
2021/11/10 04:41:11;;;;;;;11.88;5.90;;;12.30;99.90;;;;;;5035333;28;20042;-75
2021/11/10 04:43:37;;;;;;;7.88;5.30;;;12.40;99.90;;;;;;5035096;28;20112;-77
2021/11/10 04:46:12;;;;;;;9.70;5.03;;;12.40;99.90;;;;;;5033043;28;20047;-77
2021/11/10 04:48:39;;;;;;;10.80;5.78;;;12.40;99.90;;;;;;5033219;28;20046;-77
2021/11/10 04:51:07;;;;;;;9.43;5.55;;;12.40;99.90;;;;;;5034953;28;20029;-76
2021/11/10 04:53:37;;;;;;;10.90;5.88;;;12.40;99.90;;;;;;5035458;28;20021;-76
2021/11/10 04:56:04;;;;;;;13.63;5.90;;;12.40;99.90;;;;;;5033245;28;20040;-75
2021/11/10 04:58:30;;;;;;;10.85;6.28;;;12.20;99.90;;;;;;5034488;28;20056;-75
2021/11/10 05:00:56;;;;;;;9.50;6.32;;;12.20;99.90;;;;;;5034236;28;20037;-75
2021/11/10 05:03:23;;;;;;;8.48;5.55;;;12.10;99.90;;;;;;5035426;28;20363;-74
2021/11/10 05:05:57;;;;;;;9.23;5.38;;;12.10;99.90;;;;;;5034810;28;20037;-77
2021/11/10 05:08:23;;;;;;;10.82;5.88;;;12.10;99.90;;;;;;5034251;28;20368;-77
2021/11/10 05:10:49;;;;;;;10.77;5.55;;;12.10;99.90;;;;;;5034091;28;20094;-75
2021/11/10 05:13:14;;;;;;;8.88;5.68;;;12.00;99.90;;;;;;5034797;28;20026;-74
2021/11/10 05:15:40;;;;;;;10.45;6.28;;;12.00;99.90;;;;;;5034708;28;20029;-73
2021/11/10 05:18:06;;;;;;;13.32;7.35;;;12.00;99.90;;;;;;5031670;28;20038;-77
2021/11/10 05:20:31;;;;;;;11.98;6.05;;;12.00;99.90;;;;;;5026098;28;20072;-74
2021/11/10 05:22:57;;;;;;;7.85;5.75;;;11.90;99.90;;;;;;5034435;28;20040;-74
2021/11/10 05:25:23;;;;;;;8.05;5.15;;;11.90;99.90;;;;;;5012436;28;20093;-73
2021/11/10 05:27:49;;;;;;;11.98;5.97;;;11.90;99.90;;;;;;5032374;28;20090;-75
2021/11/10 05:30:16;;;;;;;11.27;6.25;;;11.90;99.90;;;;;;5033566;28;20038;-76
2021/11/10 05:32:42;;;;;;;8.77;5.80;;;11.90;99.90;;;;;;5034649;28;20037;-74
2021/11/10 05:35:10;;;;;;;11.50;6.28;;;11.90;99.90;;;;;;5034233;28;20060;-75
2021/11/10 05:37:36;;;;;;;9.90;5.97;;;11.90;99.90;;;;;;5035871;28;20084;-75
2021/11/10 05:40:03;;;;;;;11.18;5.20;;;11.80;99.90;;;;;;5016152;28;20037;-78
2021/11/10 05:42:29;;;;;;;10.90;6.55;;;11.80;99.90;;;;;;5033933;28;20077;-75
2021/11/10 05:44:55;;;;;;;9.93;6.03;;;11.90;99.90;;;;;;5028756;28;20494;-74
2021/11/10 05:47:21;;;;;;;12.10;6.18;;;11.90;99.90;;;;;;5032803;28;20455;-77
2021/11/10 05:49:48;;;;;;;14.07;6.88;;;11.90;99.90;;;;;;5033725;28;20038;-76
2021/11/10 05:52:13;;;;;;;15.27;5.97;;;11.80;99.90;;;;;;5033326;28;20029;-73
2021/11/10 05:54:40;;;;;;;15.48;6.80;;;11.80;99.90;;;;;;5033551;28;20053;-77
2021/11/10 05:57:06;;;;;;;9.65;6.10;;;11.90;99.90;;;;;;5031625;28;20116;-74
2021/11/10 05:59:33;;;;;;;14.40;6.53;;;11.80;99.90;;;;;;5034128;28;20025;-74
2021/11/10 06:01:59;;;;;;;25.92;6.13;;;11.80;99.90;;;;;;5032106;28;20032;-76
2021/11/10 06:04:25;;;;;;;13.10;6.93;;;11.80;99.90;;;;;;5033181;28;20060;-76
2021/11/10 06:06:51;;;;;;;13.30;6.22;;;11.80;99.90;;;;;;5033965;28;20069;-77
2021/11/10 06:09:16;;;;;;;10.05;6.80;;;11.80;99.90;;;;;;5033868;28;20087;-79
2021/11/10 06:11:44;;;;;;;10.25;6.20;;;11.80;99.90;;;;;;5032494;28;20042;-74
2021/11/10 06:14:10;;;;;;;10.30;6.05;;;11.80;99.90;;;;;;5033418;28;20025;-75
2021/11/10 06:16:35;;;;;;;12.88;6.32;;;11.80;99.90;;;;;;5027162;28;20037;-75
2021/11/10 06:19:01;;;;;;;13.55;6.30;;;11.80;99.90;;;;;;5032276;28;20037;-75
2021/11/10 06:21:27;;;;;;;11.68;6.57;;;11.80;99.90;;;;;;5032571;28;20030;-73
2021/11/10 06:23:53;;;;;;;10.73;7.28;;;11.90;99.90;;;;;;5032769;28;20034;-75
2021/11/10 06:26:19;;;;;;;12.77;6.10;;;11.90;99.90;;;;;;5029859;28;20030;-77
2021/11/10 06:28:44;;;;;;;11.85;6.57;;;11.90;99.90;;;;;;5031962;28;20367;-78
2021/11/10 06:31:10;;;;;;;13.07;6.20;;;11.90;99.90;;;;;;5032192;28;20049;-74
2021/11/10 06:33:36;;;;;;;10.77;6.40;;;11.90;99.90;;;;;;5030288;28;20030;-79
2021/11/10 06:36:02;;;;;;;16.48;6.90;;;12.00;99.90;;;;;;5032341;28;20044;-76
2021/11/10 06:38:28;;;;;;;15.18;6.47;;;12.00;99.90;;;;;;5033055;28;20017;-79
2021/11/10 06:40:54;;;;;;;10.27;6.13;;;12.00;99.90;;;;;;5031430;28;20471;-76
2021/11/10 06:43:20;;;;;;;19.42;6.63;;;12.10;99.90;;;;;;5030364;28;20449;-74
2021/11/10 06:45:45;;;;;;;12.20;6.25;;;12.10;99.90;;;;;;5031192;28;20548;-74
2021/11/10 06:48:11;;;;;;;26.05;7.72;;;12.20;99.90;;;;;;5032827;28;20576;-77
2021/11/10 06:50:37;;;;;;;16.00;6.28;;;12.20;99.90;;;;;;5031032;28;20148;-77
2021/11/10 06:53:03;;;;;;;12.70;6.43;;;12.30;99.90;;;;;;5032704;28;20037;-76
2021/11/10 06:55:29;;;;;;;19.48;6.93;;;12.50;99.90;;;;;;5031698;28;20375;-74
2021/11/10 06:57:54;;;;;;;19.33;6.93;;;12.60;99.90;;;;;;5031683;28;20034;-75
2021/11/10 07:00:20;;;;;;;13.13;6.78;;;12.90;99.90;;;;;;5031893;28;20033;-77
2021/11/10 07:02:46;;;;;;;10.73;6.45;;;13.20;99.90;;;;;;5033339;28;20450;-75
2021/11/10 07:05:11;;;;;;;15.60;6.22;;;13.50;99.90;;;;;;5033443;28;20087;-80
2021/11/10 07:07:37;;;;;;;10.95;5.97;;;13.50;99.90;;;;;;5033240;28;20114;-77
2021/11/10 07:10:04;;;;;;;14.32;6.70;;;13.40;99.90;;;;;;5026620;28;20439;-78
2021/11/10 07:12:37;;;;;;;14.07;6.47;;;13.40;99.90;;;;;;5110062;27;20396;-75
2021/11/10 07:15:03;;;;;;;11.10;6.13;;;13.40;99.90;;;;;;5110211;28;20024;-77
2021/11/10 07:17:29;;;;;;;20.08;6.30;;;13.60;99.90;;;;;;5110478;28;20077;-74
2021/11/10 07:19:55;;;;;;;19.80;6.15;;;13.70;99.90;;;;;;5110224;28;20020;-77
2021/11/10 07:22:21;;;;;;;12.80;6.05;;;13.90;99.90;;;;;;5110344;28;20186;-76
2021/11/10 07:24:47;;;;;;;15.30;6.50;;;14.00;99.90;;;;;;5108757;28;20024;-74
2021/11/10 07:27:13;;;;;;;18.58;7.30;;;13.90;99.90;;;;;;5107050;28;20012;-77
2021/11/10 07:29:39;;;;;;;13.93;6.85;;;13.70;99.90;;;;;;5109052;28;20055;-75
2021/11/10 07:32:05;;;;;;;11.98;6.45;;;13.50;99.90;;;;;;5108939;28;20055;-76
2021/11/10 07:34:31;;;;;;;15.65;6.97;;;13.40;99.90;;;;;;5101541;28;20016;-75
2021/11/10 07:36:56;;;;;;;16.48;7.20;;;13.30;99.90;;;;;;5109687;28;20062;-77
2021/11/10 07:39:22;;;;;;;15.48;6.68;;;13.20;99.90;;;;;;5109834;28;20051;-75
2021/11/10 07:41:50;;;;;;;11.25;6.65;;;13.10;99.90;;;;;;5094366;28;20048;-75
2021/11/10 07:44:16;;;;;;;12.73;6.55;;;13.00;99.90;;;;;;5096969;28;20062;-74
2021/11/10 07:47:03;;;;;;;16.70;6.72;;;13.00;99.90;;;;;;5077843;28;20033;-75
2021/11/10 07:49:29;;;;;;;17.40;7.28;;;13.10;99.90;;;;;;5092128;28;20028;-77
2021/11/10 07:51:55;;;;;;;13.00;7.32;;;13.00;99.90;;;;;;5083704;28;20572;-79
2021/11/10 07:54:20;;;;;;;17.10;7.20;;;13.00;99.90;;;;;;5094369;28;20023;-79
2021/11/10 07:56:46;;;;;;;18.98;7.50;;;13.10;99.90;;;;;;5092440;28;20384;-79
2021/11/10 07:59:12;;;;;;;21.00;7.55;;;13.10;99.90;;;;;;5094092;28;20047;-79
2021/11/10 08:01:37;;;;;;;14.70;7.00;;;13.10;99.90;;;;;;5096920;28;20016;-80
2021/11/10 08:04:03;;;;;;;15.40;7.18;;;13.10;99.90;;;;;;5098073;28;20052;-84
2021/11/10 08:06:31;;;;;;;11.52;6.65;;;13.10;99.90;;;;;;5087778;28;20035;-79
2021/11/10 08:08:56;;;;;;;10.95;7.00;;;13.20;99.90;;;;;;5104634;28;20510;-80
2021/11/10 08:11:22;;;;;;;11.75;6.80;;;13.30;99.90;;;;;;5108417;28;20130;-82
2021/11/10 08:13:48;;;;;;;11.75;7.32;;;13.40;99.90;;;;;;5107674;28;20054;-80
2021/11/10 08:16:13;;;;;;;16.67;6.85;;;13.60;99.90;;;;;;5097609;28;20051;-79
2021/11/10 08:18:39;;;;;;;12.38;7.25;;;13.80;99.90;;;;;;5084931;28;20021;-79
2021/11/10 08:21:05;;;;;;;9.50;5.85;;;14.30;99.90;;;;;;5089476;28;20051;-81
2021/11/10 08:23:31;;;;;;;15.50;6.47;;;14.80;99.90;;;;;;5070164;28;20020;-81
2021/11/10 08:25:58;;;;;;;9.43;6.43;;;15.10;99.90;;;;;;5067267;28;20107;-81
2021/11/10 08:28:24;;;;;;;12.32;6.05;;;15.30;99.90;;;;;;5071297;28;20025;-82
2021/11/10 08:30:51;;;;;;;12.43;6.05;;;15.30;99.90;;;;;;5061261;28;20028;-81
2021/11/10 08:33:18;;;;;;;10.32;5.90;;;15.30;99.90;;;;;;5066353;28;20484;-83
2021/11/10 08:35:44;;;;;;;10.98;6.13;;;15.20;99.90;;;;;;5082623;28;20495;-81
2021/11/10 08:38:10;;;;;;;26.55;6.25;;;15.20;99.90;;;;;;5084490;28;20020;-80
2021/11/10 08:40:37;;;;;;;10.00;6.50;;;15.20;99.90;;;;;;5060233;28;20025;-80
2021/11/10 08:43:03;;;;;;;11.18;6.43;;;15.40;99.90;;;;;;5070946;28;20388;-81
2021/11/10 08:45:33;;;;;;;7.57;5.90;;;15.50;99.90;;;;;;5072547;28;20064;-80
2021/11/10 08:48:03;;;;;;;17.63;5.97;;;15.60;99.90;;;;;;5083612;28;20020;-78
2021/11/10 08:50:29;;;;;;;11.60;6.90;;;15.60;99.90;;;;;;5090216;28;20403;-79
2021/11/10 08:52:56;;;;;;;13.35;6.45;;;15.70;99.90;;;;;;5073892;28;20047;-81
2021/11/10 08:55:22;;;;;;;8.57;6.13;;;15.80;99.90;;;;;;5069680;28;20105;-82
2021/11/10 08:57:49;;;;;;;15.52;6.25;;;15.90;99.90;;;;;;5078168;28;20452;-80
2021/11/10 09:00:22;;;;;;;10.23;6.75;;;15.90;99.90;;;;;;5079137;28;20020;-78
2021/11/10 09:02:49;;;;;;;9.93;6.72;;;15.90;99.90;;;;;;5076464;28;20131;-80
2021/11/10 09:05:15;;;;;;;14.30;7.22;;;15.90;99.90;;;;;;5061819;28;20025;-79
2021/11/10 09:07:42;;;;;;;9.93;6.95;;;15.80;99.90;;;;;;5068185;28;20036;-83
2021/11/10 09:10:10;;;;;;;12.02;6.43;;;15.80;99.90;;;;;;5074322;28;20017;-79
2021/11/10 09:12:37;;;;;;;18.27;5.95;;;15.80;99.90;;;;;;5070639;28;20413;-80
2021/11/10 09:15:05;;;;;;;15.93;5.90;;;15.90;99.90;;;;;;5077784;28;20449;-81
2021/11/10 09:17:34;;;;;;;13.60;6.82;;;16.00;99.90;;;;;;5075491;28;20033;-79
2021/11/10 09:20:02;;;;;;;12.02;6.75;;;16.20;99.90;;;;;;5071741;28;20082;-81
2021/11/10 09:22:28;;;;;;;19.55;7.35;;;16.10;99.90;;;;;;5068300;28;20028;-81
2021/11/10 09:24:54;;;;;;;12.68;6.18;;;16.40;99.90;;;;;;5079676;28;20103;-82
2021/11/10 09:27:19;;;;;;;11.32;5.82;;;16.80;99.90;;;;;;5082650;28;20550;-84
2021/11/10 09:29:46;;;;;;;11.82;6.05;;;17.30;99.90;;;;;;5067142;28;20059;-84
2021/11/10 09:32:12;;;;;;;8.73;6.07;;;17.20;99.90;;;;;;5068473;28;20032;-85
2021/11/10 09:34:37;;;;;;;14.38;5.75;;;17.00;99.90;;;;;;5072414;28;20087;-83
2021/11/10 09:37:04;;;;;;;14.90;5.88;;;16.70;99.90;;;;;;5084629;28;20032;-84
2021/11/10 09:39:30;;;;;;;13.02;6.20;;;16.60;99.90;;;;;;5069848;28;20024;-84
2021/11/10 09:41:56;;;;;;;16.45;6.63;;;16.60;99.90;;;;;;5082034;28;20031;-86
2021/11/10 09:44:23;;;;;;;18.45;6.57;;;16.70;99.90;;;;;;5075357;28;20047;-86
2021/11/10 09:46:52;;;;;;;7.53;5.35;;;16.70;99.90;;;;;;5067959;28;20472;-84
2021/11/10 09:49:18;;;;;;;23.40;6.30;;;16.60;99.90;;;;;;5068176;28;20119;-81
2021/11/10 09:51:45;;;;;;;10.75;6.47;;;16.60;99.90;;;;;;5062952;28;20025;-87
2021/11/10 09:54:13;;;;;;;18.30;6.70;;;16.60;99.90;;;;;;5060796;28;20055;-85
2021/11/10 09:56:40;;;;;;;15.82;5.78;;;16.60;99.90;;;;;;5063298;28;20089;-82
2021/11/10 09:59:06;;;;;;;28.13;7.53;;;16.50;99.90;;;;;;5072216;28;20109;-85
2021/11/10 10:01:37;;;;;;;15.55;6.28;;;16.40;99.90;;;;;;5070708;28;20031;-85
2021/11/10 10:04:04;;;;;;;10.43;6.15;;;16.20;99.90;;;;;;5063080;28;20096;-85
2021/11/10 10:06:30;;;;;;;10.70;5.65;;;16.10;99.90;;;;;;5057708;28;20033;-85
2021/11/10 10:08:57;;;;;;;10.60;6.22;;;16.10;99.90;;;;;;5058372;28;20036;-84
2021/11/10 10:11:23;;;;;;;12.40;6.60;;;16.00;99.90;;;;;;5062253;28;20044;-84
2021/11/10 10:13:49;;;;;;;12.02;5.68;;;16.10;99.90;;;;;;5070111;28;20542;-85
2021/11/10 10:16:20;;;;;;;7.63;5.90;;;16.20;99.90;;;;;;5068950;28;20023;-87
2021/11/10 10:18:46;;;;;;;13.77;7.50;;;16.50;99.90;;;;;;5062375;28;20020;-83
2021/11/10 10:21:13;;;;;;;9.95;6.18;;;16.60;99.90;;;;;;5065849;28;20481;-87
2021/11/10 10:23:49;;;;;;;11.90;6.72;;;16.60;99.90;;;;;;5088706;28;20118;-84
2021/11/10 10:26:20;;;;;;;12.80;6.30;;;16.90;99.90;;;;;;5064095;28;20013;-92
2021/11/10 10:28:52;;;;;;;12.63;5.75;;;17.50;99.90;;;;;;5068027;28;20482;-84
2021/11/10 10:31:23;;;;;;;11.15;6.30;;;18.10;99.90;;;;;;5057149;28;20047;-82
2021/11/10 10:33:52;;;;;;;12.10;5.10;;;18.70;99.90;;;;;;5069550;28;20033;-82
2021/11/10 10:36:29;;;;;;;11.77;5.45;;;18.80;99.90;;;;;;5069034;28;20021;-81
2021/11/10 10:38:58;;;;;;;16.42;6.55;;;18.20;99.90;;;;;;5067568;28;20021;-80
2021/11/10 10:41:54;;;;;;;12.68;6.15;;;17.70;99.90;;;;;;5068387;28;20425;-81
2021/11/10 10:44:23;;;;;;;17.25;5.32;;;17.60;99.90;;;;;;5059246;28;20056;-79
2021/11/10 10:47:00;;;;;;;10.60;5.80;;;17.60;99.90;;;;;;5055130;28;20037;-78
2021/11/10 10:49:38;;;;;;;12.30;5.72;;;18.40;99.90;;;;;;5060931;28;20029;-80
2021/11/10 10:52:19;;;;;;;9.25;5.00;;;20.00;99.90;;;;;;5057390;28;20047;-78
2021/11/10 10:54:47;;;;;;;11.32;5.07;;;22.20;99.90;;;;;;5062937;28;20119;-79
2021/11/10 10:57:23;;;;;;;7.72;5.32;;;23.30;99.90;;;;;;5060941;28;20041;-81
2021/11/10 11:00:07;;;;;;;7.25;4.70;;;23.00;99.90;;;;;;5065745;28;20078;-82
2021/11/10 11:02:34;;;;;;;12.88;5.78;;;22.10;99.90;;;;;;5092715;28;20016;-78
2021/11/10 11:04:59;;;;;;;23.50;8.68;;;21.20;99.90;;;;;;5060310;28;20025;-78
2021/11/10 11:07:30;;;;;;;125.00;86.25;;;20.50;99.90;;;;;;5063405;28;20066;-78
2021/11/10 11:09:56;;;;;;;9.05;7.35;;;20.10;99.90;;;;;;5062110;28;20025;-80
2021/11/10 11:12:32;;;;;;;9.93;5.35;;;19.70;99.90;;;;;;5065607;28;20074;-83
2021/11/10 11:15:25;;;;;;;6.97;5.10;;;19.10;99.90;;;;;;5064323;28;20063;-86
2021/11/10 11:17:55;;;;;;;8.38;5.57;;;18.80;99.90;;;;;;5085566;28;20107;-81
2021/11/10 11:20:29;;;;;;;9.55;5.47;;;18.60;99.90;;;;;;5077373;28;20056;-80
2021/11/10 11:22:56;;;;;;;18.33;6.25;;;18.50;99.90;;;;;;5066799;28;20515;-79
2021/11/10 11:25:43;;;;;;;9.95;5.30;;;18.50;99.90;;;;;;5060694;28;20024;-80
2021/11/10 11:28:14;;;;;;;11.38;5.10;;;18.40;99.90;;;;;;5065052;28;20492;-80
2021/11/10 11:30:58;;;;;;;17.95;5.80;;;18.60;99.90;;;;;;5080746;28;20065;-79
2021/11/10 11:33:26;;;;;;;13.85;6.25;;;18.60;99.90;;;;;;5067453;28;20496;-79
2021/11/10 11:35:57;;;;;;;14.40;5.75;;;18.40;99.90;;;;;;5067661;28;20025;-80
2021/11/10 11:38:24;;;;;;;;;;;18.30;99.90;;;;;;5055026;28;20331;-80
2021/11/10 11:40:52;;;;;;;6.97;5.10;;;18.20;99.90;;;;;;5072154;28;20270;-81
2021/11/10 11:43:22;;;;;;;11.07;5.50;;;18.10;99.90;;;;;;5069337;28;20025;-83
2021/11/10 11:45:50;;;;;;;12.07;5.65;;;18.00;99.90;;;;;;5061689;28;20036;-79
2021/11/10 11:48:20;;;;;;;12.60;5.53;;;17.90;99.90;;;;;;5062856;28;20027;-82
2021/11/10 11:50:47;;;;;;;14.25;5.78;;;17.90;99.90;;;;;;5060730;28;20027;-79
2021/11/10 11:53:15;;;;;;;11.13;5.80;;;17.90;99.90;;;;;;5059141;28;20386;-87
2021/11/10 11:55:48;;;;;;;7.65;5.20;;;18.00;99.90;;;;;;5062831;28;20059;-81
2021/11/10 11:58:24;;;;;;;8.63;5.40;;;18.00;99.90;;;;;;5064428;28;20029;-82
2021/11/10 12:01:00;;;;;;;10.20;6.55;;;17.90;99.90;;;;;;5058893;28;20036;-78
2021/11/10 12:03:34;;;;;;;12.43;6.75;;;18.00;99.90;;;;;;5055411;28;20021;-79
2021/11/10 12:06:02;;;;;;;9.98;5.50;;;18.00;99.90;;;;;;5091022;28;20048;-77
2021/11/10 12:08:44;;;;;;;20.95;14.40;;;18.00;99.90;;;;;;5090350;28;20024;-79
2021/11/10 12:11:29;;;;;;;30.33;21.65;;;18.20;99.90;;;;;;5092019;28;20504;-78
2021/11/10 12:14:09;;;;;;;81.50;39.70;;;18.20;99.90;;;;;;5092145;28;20070;-79
2021/11/10 12:17:05;;;;;;;9.75;5.85;;;18.20;99.90;;;;;;5092096;28;20490;-79
2021/11/10 12:19:33;;;;;;;8.27;5.55;;;18.10;99.90;;;;;;5072559;28;20090;-80
2021/11/10 12:22:25;;;;;;;8.65;5.70;;;18.00;99.90;;;;;;5092206;28;20399;-81
2021/11/10 12:25:02;;;;;;;8.65;5.20;;;18.10;99.90;;;;;;5088651;28;20024;-80
2021/11/10 12:27:40;;;;;;;7.75;5.50;;;18.10;99.90;;;;;;5078210;28;20032;-85
2021/11/10 12:30:25;;;;;;;9.15;4.97;;;18.20;99.90;;;;;;5081987;28;20021;-83
2021/11/10 12:33:03;;;;;;;11.40;5.45;;;18.20;99.90;;;;;;5093778;28;20028;-82
2021/11/10 12:35:34;;;;;;;6.03;4.88;;;18.10;99.90;;;;;;5066406;28;20027;-83
2021/11/10 12:38:12;;;;;;;7.72;5.40;;;18.00;99.90;;;;;;5064323;28;20267;-81
2021/11/10 12:40:49;;;;;;;14.88;5.28;;;18.00;99.90;;;;;;5064714;28;20504;-84
2021/11/10 12:43:23;;;;;;;7.22;5.28;;;18.10;99.90;;;;;;5078577;28;20024;-85
2021/11/10 12:46:05;;;;;;;8.73;5.07;;;18.10;99.90;;;;;;5074488;28;20773;-81